sensor_id;sensor_type;location;lat;lon;timestamp;P1;durP1;ratioP1;P2;durP2;ratioP2
70729;SDS011;58315;53.336;55.932;2022-07-18T00:02:25;19.75;;;11.13;;
70729;SDS011;58315;53.336;55.932;2022-07-18T00:04:51;30.27;;;10.60;;
70729;SDS011;58315;53.336;55.932;2022-07-18T00:07:18;25.55;;;11.25;;
70729;SDS011;58315;53.336;55.932;2022-07-18T00:09:44;21.27;;;11.02;;
70729;SDS011;58315;53.336;55.932;2022-07-18T00:12:10;21.52;;;10.98;;
70729;SDS011;58315;53.336;55.932;2022-07-18T00:14:37;21.58;;;11.15;;
70729;SDS011;58315;53.336;55.932;2022-07-18T00:17:04;16.58;;;11.00;;
70729;SDS011;58315;53.336;55.932;2022-07-18T00:19:31;18.55;;;10.70;;
70729;SDS011;58315;53.336;55.932;2022-07-18T00:21:57;18.50;;;11.15;;
70729;SDS011;58315;53.336;55.932;2022-07-18T00:24:23;33.88;;;12.20;;
70729;SDS011;58315;53.336;55.932;2022-07-18T00:26:49;20.15;;;12.15;;
70729;SDS011;58315;53.336;55.932;2022-07-18T00:29:15;20.77;;;11.63;;
70729;SDS011;58315;53.336;55.932;2022-07-18T00:31:41;22.45;;;12.35;;
70729;SDS011;58315;53.336;55.932;2022-07-18T00:34:07;20.15;;;11.65;;
70729;SDS011;58315;53.336;55.932;2022-07-18T00:36:33;27.88;;;12.23;;
70729;SDS011;58315;53.336;55.932;2022-07-18T00:38:59;23.88;;;11.55;;
70729;SDS011;58315;53.336;55.932;2022-07-18T00:41:25;33.83;;;13.13;;
70729;SDS011;58315;53.336;55.932;2022-07-18T00:43:52;43.97;;;13.90;;
70729;SDS011;58315;53.336;55.932;2022-07-18T00:46:22;40.33;;;14.90;;
70729;SDS011;58315;53.336;55.932;2022-07-18T00:48:49;51.65;;;16.60;;
70729;SDS011;58315;53.336;55.932;2022-07-18T00:51:16;52.03;;;17.15;;
70729;SDS011;58315;53.336;55.932;2022-07-18T00:53:43;62.50;;;19.90;;
70729;SDS011;58315;53.336;55.932;2022-07-18T00:56:09;70.53;;;19.13;;
70729;SDS011;58315;53.336;55.932;2022-07-18T00:58:37;38.85;;;17.85;;
70729;SDS011;58315;53.336;55.932;2022-07-18T01:01:03;46.22;;;17.73;;
70729;SDS011;58315;53.336;55.932;2022-07-18T01:03:48;35.40;;;16.52;;
70729;SDS011;58315;53.336;55.932;2022-07-18T01:06:14;48.70;;;15.55;;
70729;SDS011;58315;53.336;55.932;2022-07-18T01:08:42;35.22;;;15.82;;
70729;SDS011;58315;53.336;55.932;2022-07-18T01:11:08;21.83;;;13.77;;
70729;SDS011;58315;53.336;55.932;2022-07-18T01:13:35;32.47;;;13.93;;
70729;SDS011;58315;53.336;55.932;2022-07-18T01:16:04;30.23;;;13.68;;
70729;SDS011;58315;53.336;55.932;2022-07-18T01:18:30;23.33;;;12.88;;
70729;SDS011;58315;53.336;55.932;2022-07-18T01:20:56;28.45;;;12.73;;
70729;SDS011;58315;53.336;55.932;2022-07-18T01:23:22;29.35;;;12.63;;
70729;SDS011;58315;53.336;55.932;2022-07-18T01:25:49;24.42;;;12.35;;
70729;SDS011;58315;53.336;55.932;2022-07-18T01:28:15;20.27;;;13.07;;
70729;SDS011;58315;53.336;55.932;2022-07-18T01:30:41;26.75;;;12.32;;
70729;SDS011;58315;53.336;55.932;2022-07-18T01:33:07;32.60;;;14.45;;
70729;SDS011;58315;53.336;55.932;2022-07-18T01:35:33;24.60;;;13.30;;
70729;SDS011;58315;53.336;55.932;2022-07-18T01:38:00;27.05;;;14.23;;
70729;SDS011;58315;53.336;55.932;2022-07-18T01:40:27;24.15;;;14.77;;
70729;SDS011;58315;53.336;55.932;2022-07-18T01:42:54;39.05;;;19.60;;
70729;SDS011;58315;53.336;55.932;2022-07-18T01:45:20;67.90;;;17.90;;
70729;SDS011;58315;53.336;55.932;2022-07-18T01:47:47;45.15;;;19.27;;
70729;SDS011;58315;53.336;55.932;2022-07-18T01:50:13;62.38;;;21.33;;
70729;SDS011;58315;53.336;55.932;2022-07-18T01:52:40;46.45;;;20.25;;
70729;SDS011;58315;53.336;55.932;2022-07-18T01:55:07;44.28;;;18.40;;
70729;SDS011;58315;53.336;55.932;2022-07-18T01:57:36;48.72;;;17.63;;
70729;SDS011;58315;53.336;55.932;2022-07-18T02:00:03;49.53;;;15.88;;
70729;SDS011;58315;53.336;55.932;2022-07-18T02:02:32;31.13;;;14.65;;
70729;SDS011;58315;53.336;55.932;2022-07-18T02:04:58;24.85;;;13.60;;
70729;SDS011;58315;53.336;55.932;2022-07-18T02:07:38;31.58;;;13.27;;
70729;SDS011;58315;53.336;55.932;2022-07-18T02:12:34;24.08;;;13.38;;
70729;SDS011;58315;53.336;55.932;2022-07-18T02:15:01;28.17;;;14.07;;
70729;SDS011;58315;53.336;55.932;2022-07-18T02:17:28;33.15;;;13.80;;
70729;SDS011;58315;53.336;55.932;2022-07-18T02:19:54;32.80;;;13.70;;
70729;SDS011;58315;53.336;55.932;2022-07-18T02:22:20;28.77;;;13.50;;
70729;SDS011;58315;53.336;55.932;2022-07-18T02:24:46;28.02;;;13.88;;
70729;SDS011;58315;53.336;55.932;2022-07-18T02:27:12;20.42;;;13.05;;
70729;SDS011;58315;53.336;55.932;2022-07-18T02:29:38;35.03;;;13.02;;
70729;SDS011;58315;53.336;55.932;2022-07-18T02:32:04;33.30;;;13.98;;
70729;SDS011;58315;53.336;55.932;2022-07-18T02:34:31;34.08;;;13.85;;
70729;SDS011;58315;53.336;55.932;2022-07-18T02:36:57;35.50;;;13.15;;
70729;SDS011;58315;53.336;55.932;2022-07-18T02:39:23;33.22;;;13.48;;
70729;SDS011;58315;53.336;55.932;2022-07-18T02:41:49;37.70;;;13.52;;
70729;SDS011;58315;53.336;55.932;2022-07-18T02:44:15;27.45;;;14.35;;
70729;SDS011;58315;53.336;55.932;2022-07-18T02:46:41;42.97;;;15.05;;
70729;SDS011;58315;53.336;55.932;2022-07-18T02:49:07;38.13;;;14.27;;
70729;SDS011;58315;53.336;55.932;2022-07-18T02:51:33;45.72;;;13.80;;
70729;SDS011;58315;53.336;55.932;2022-07-18T02:53:59;33.25;;;13.85;;
70729;SDS011;58315;53.336;55.932;2022-07-18T02:56:25;27.35;;;13.20;;
70729;SDS011;58315;53.336;55.932;2022-07-18T02:58:51;32.80;;;13.75;;
70729;SDS011;58315;53.336;55.932;2022-07-18T03:01:18;27.88;;;13.23;;
70729;SDS011;58315;53.336;55.932;2022-07-18T03:03:44;31.80;;;14.25;;
70729;SDS011;58315;53.336;55.932;2022-07-18T03:06:10;21.77;;;12.98;;
70729;SDS011;58315;53.336;55.932;2022-07-18T03:08:36;44.92;;;14.23;;
70729;SDS011;58315;53.336;55.932;2022-07-18T03:11:01;26.35;;;13.35;;
70729;SDS011;58315;53.336;55.932;2022-07-18T03:13:27;34.40;;;14.13;;
70729;SDS011;58315;53.336;55.932;2022-07-18T03:15:54;29.63;;;12.30;;
70729;SDS011;58315;53.336;55.932;2022-07-18T03:18:19;21.85;;;12.40;;
70729;SDS011;58315;53.336;55.932;2022-07-18T03:20:47;20.10;;;10.93;;
70729;SDS011;58315;53.336;55.932;2022-07-18T03:23:13;16.63;;;10.15;;
70729;SDS011;58315;53.336;55.932;2022-07-18T03:25:39;19.83;;;10.57;;
70729;SDS011;58315;53.336;55.932;2022-07-18T03:28:05;30.70;;;10.35;;
70729;SDS011;58315;53.336;55.932;2022-07-18T03:30:31;32.63;;;10.82;;
70729;SDS011;58315;53.336;55.932;2022-07-18T03:32:57;24.85;;;9.70;;
70729;SDS011;58315;53.336;55.932;2022-07-18T03:35:23;23.92;;;10.27;;
70729;SDS011;58315;53.336;55.932;2022-07-18T03:37:49;28.33;;;10.00;;
70729;SDS011;58315;53.336;55.932;2022-07-18T03:40:15;30.92;;;8.60;;
70729;SDS011;58315;53.336;55.932;2022-07-18T03:42:41;20.95;;;8.60;;
70729;SDS011;58315;53.336;55.932;2022-07-18T03:45:07;26.15;;;9.07;;
70729;SDS011;58315;53.336;55.932;2022-07-18T03:47:34;27.65;;;8.93;;
70729;SDS011;58315;53.336;55.932;2022-07-18T03:50:00;17.63;;;8.90;;
70729;SDS011;58315;53.336;55.932;2022-07-18T03:52:26;29.00;;;9.98;;
70729;SDS011;58315;53.336;55.932;2022-07-18T03:54:52;19.40;;;8.77;;
70729;SDS011;58315;53.336;55.932;2022-07-18T03:57:21;40.83;;;8.98;;
70729;SDS011;58315;53.336;55.932;2022-07-18T03:59:47;25.80;;;8.07;;
70729;SDS011;58315;53.336;55.932;2022-07-18T04:02:13;16.23;;;7.78;;
70729;SDS011;58315;53.336;55.932;2022-07-18T04:04:38;23.48;;;7.82;;
70729;SDS011;58315;53.336;55.932;2022-07-18T04:07:04;21.55;;;8.00;;
70729;SDS011;58315;53.336;55.932;2022-07-18T04:09:30;14.93;;;7.93;;
70729;SDS011;58315;53.336;55.932;2022-07-18T04:11:56;16.67;;;8.32;;
70729;SDS011;58315;53.336;55.932;2022-07-18T04:14:22;14.23;;;8.90;;
70729;SDS011;58315;53.336;55.932;2022-07-18T04:16:48;17.70;;;8.68;;
70729;SDS011;58315;53.336;55.932;2022-07-18T04:19:15;19.88;;;9.00;;
70729;SDS011;58315;53.336;55.932;2022-07-18T04:21:42;16.83;;;8.60;;
70729;SDS011;58315;53.336;55.932;2022-07-18T04:24:08;30.65;;;8.50;;
70729;SDS011;58315;53.336;55.932;2022-07-18T04:26:35;18.58;;;9.65;;
70729;SDS011;58315;53.336;55.932;2022-07-18T04:29:01;26.83;;;9.43;;
70729;SDS011;58315;53.336;55.932;2022-07-18T04:31:27;16.65;;;9.38;;
70729;SDS011;58315;53.336;55.932;2022-07-18T04:33:53;27.73;;;9.07;;
70729;SDS011;58315;53.336;55.932;2022-07-18T04:36:19;26.73;;;9.40;;
70729;SDS011;58315;53.336;55.932;2022-07-18T04:38:45;15.85;;;7.22;;
70729;SDS011;58315;53.336;55.932;2022-07-18T04:41:11;21.52;;;7.63;;
70729;SDS011;58315;53.336;55.932;2022-07-18T04:43:37;16.02;;;6.82;;
70729;SDS011;58315;53.336;55.932;2022-07-18T04:46:03;17.88;;;6.60;;
70729;SDS011;58315;53.336;55.932;2022-07-18T04:48:29;14.68;;;6.80;;
70729;SDS011;58315;53.336;55.932;2022-07-18T04:50:55;9.13;;;6.40;;
70729;SDS011;58315;53.336;55.932;2022-07-18T04:53:21;12.45;;;5.90;;
70729;SDS011;58315;53.336;55.932;2022-07-18T04:55:47;13.65;;;5.90;;
70729;SDS011;58315;53.336;55.932;2022-07-18T04:58:13;11.27;;;5.35;;
70729;SDS011;58315;53.336;55.932;2022-07-18T05:00:39;14.57;;;6.40;;
70729;SDS011;58315;53.336;55.932;2022-07-18T05:03:05;20.20;;;6.15;;
70729;SDS011;58315;53.336;55.932;2022-07-18T05:05:32;19.58;;;6.25;;
70729;SDS011;58315;53.336;55.932;2022-07-18T05:07:57;26.92;;;7.38;;
70729;SDS011;58315;53.336;55.932;2022-07-18T05:10:23;12.32;;;6.18;;
70729;SDS011;58315;53.336;55.932;2022-07-18T05:12:51;18.08;;;7.45;;
70729;SDS011;58315;53.336;55.932;2022-07-18T05:17:47;15.32;;;6.30;;
70729;SDS011;58315;53.336;55.932;2022-07-18T05:20:15;16.17;;;7.28;;
70729;SDS011;58315;53.336;55.932;2022-07-18T05:22:42;16.23;;;6.68;;
70729;SDS011;58315;53.336;55.932;2022-07-18T05:25:09;16.08;;;6.97;;
70729;SDS011;58315;53.336;55.932;2022-07-18T05:27:36;15.07;;;6.95;;
70729;SDS011;58315;53.336;55.932;2022-07-18T05:30:03;9.38;;;6.70;;
70729;SDS011;58315;53.336;55.932;2022-07-18T05:32:30;18.95;;;6.72;;
70729;SDS011;58315;53.336;55.932;2022-07-18T05:34:57;8.60;;;6.32;;
70729;SDS011;58315;53.336;55.932;2022-07-18T05:37:23;15.18;;;6.30;;
70729;SDS011;58315;53.336;55.932;2022-07-18T05:39:49;11.73;;;6.57;;
70729;SDS011;58315;53.336;55.932;2022-07-18T05:42:20;8.07;;;6.05;;
70729;SDS011;58315;53.336;55.932;2022-07-18T05:44:46;11.52;;;5.93;;
70729;SDS011;58315;53.336;55.932;2022-07-18T05:47:12;11.95;;;6.15;;
70729;SDS011;58315;53.336;55.932;2022-07-18T05:49:39;10.35;;;5.72;;
70729;SDS011;58315;53.336;55.932;2022-07-18T05:52:05;11.23;;;6.00;;
70729;SDS011;58315;53.336;55.932;2022-07-18T05:54:32;9.95;;;5.43;;
70729;SDS011;58315;53.336;55.932;2022-07-18T05:56:58;14.02;;;6.50;;
70729;SDS011;58315;53.336;55.932;2022-07-18T05:59:24;12.48;;;6.40;;
70729;SDS011;58315;53.336;55.932;2022-07-18T06:01:50;14.82;;;5.88;;
70729;SDS011;58315;53.336;55.932;2022-07-18T06:04:16;17.27;;;6.32;;
70729;SDS011;58315;53.336;55.932;2022-07-18T06:06:44;13.18;;;6.03;;
70729;SDS011;58315;53.336;55.932;2022-07-18T06:09:13;10.43;;;5.45;;
70729;SDS011;58315;53.336;55.932;2022-07-18T06:11:41;17.33;;;5.43;;
70729;SDS011;58315;53.336;55.932;2022-07-18T06:14:07;8.95;;;5.32;;
70729;SDS011;58315;53.336;55.932;2022-07-18T06:16:34;8.73;;;5.38;;
70729;SDS011;58315;53.336;55.932;2022-07-18T06:19:02;8.85;;;5.15;;
70729;SDS011;58315;53.336;55.932;2022-07-18T06:21:28;7.72;;;5.32;;
70729;SDS011;58315;53.336;55.932;2022-07-18T06:23:55;9.77;;;5.60;;
70729;SDS011;58315;53.336;55.932;2022-07-18T06:26:21;8.00;;;5.53;;
70729;SDS011;58315;53.336;55.932;2022-07-18T06:28:49;15.52;;;6.10;;
70729;SDS011;58315;53.336;55.932;2022-07-18T06:31:15;6.43;;;5.28;;
70729;SDS011;58315;53.336;55.932;2022-07-18T06:33:42;9.35;;;6.03;;
70729;SDS011;58315;53.336;55.932;2022-07-18T06:36:08;10.77;;;6.15;;
70729;SDS011;58315;53.336;55.932;2022-07-18T06:38:37;12.70;;;6.78;;
70729;SDS011;58315;53.336;55.932;2022-07-18T06:41:05;13.20;;;6.10;;
70729;SDS011;58315;53.336;55.932;2022-07-18T06:43:31;8.65;;;5.88;;
70729;SDS011;58315;53.336;55.932;2022-07-18T06:45:57;9.70;;;6.45;;
70729;SDS011;58315;53.336;55.932;2022-07-18T06:48:23;12.82;;;6.53;;
70729;SDS011;58315;53.336;55.932;2022-07-18T06:50:49;9.75;;;6.57;;
70729;SDS011;58315;53.336;55.932;2022-07-18T06:53:15;9.77;;;6.63;;
70729;SDS011;58315;53.336;55.932;2022-07-18T06:55:41;11.02;;;6.53;;
70729;SDS011;58315;53.336;55.932;2022-07-18T06:58:07;14.80;;;6.50;;
70729;SDS011;58315;53.336;55.932;2022-07-18T07:00:35;8.48;;;6.05;;
70729;SDS011;58315;53.336;55.932;2022-07-18T07:03:01;10.63;;;6.13;;
70729;SDS011;58315;53.336;55.932;2022-07-18T07:05:27;18.00;;;6.93;;
70729;SDS011;58315;53.336;55.932;2022-07-18T07:07:53;21.55;;;6.63;;
70729;SDS011;58315;53.336;55.932;2022-07-18T07:10:19;11.88;;;6.68;;
70729;SDS011;58315;53.336;55.932;2022-07-18T07:12:49;10.73;;;6.25;;
70729;SDS011;58315;53.336;55.932;2022-07-18T07:15:18;10.55;;;5.95;;
70729;SDS011;58315;53.336;55.932;2022-07-18T07:17:45;12.52;;;6.18;;
70729;SDS011;58315;53.336;55.932;2022-07-18T07:20:12;13.20;;;6.47;;
70729;SDS011;58315;53.336;55.932;2022-07-18T07:22:45;9.30;;;5.95;;
70729;SDS011;58315;53.336;55.932;2022-07-18T07:25:19;13.32;;;6.35;;
70729;SDS011;58315;53.336;55.932;2022-07-18T07:27:50;11.57;;;6.03;;
70729;SDS011;58315;53.336;55.932;2022-07-18T07:30:18;20.85;;;6.40;;
70729;SDS011;58315;53.336;55.932;2022-07-18T07:32:44;13.73;;;5.72;;
70729;SDS011;58315;53.336;55.932;2022-07-18T07:35:11;6.32;;;5.18;;
70729;SDS011;58315;53.336;55.932;2022-07-18T07:37:39;15.98;;;5.90;;
70729;SDS011;58315;53.336;55.932;2022-07-18T07:40:10;13.18;;;6.15;;
70729;SDS011;58315;53.336;55.932;2022-07-18T07:42:38;16.30;;;5.85;;
70729;SDS011;58315;53.336;55.932;2022-07-18T07:45:04;8.65;;;5.93;;
70729;SDS011;58315;53.336;55.932;2022-07-18T07:47:31;9.25;;;5.90;;
70729;SDS011;58315;53.336;55.932;2022-07-18T07:49:57;9.65;;;5.47;;
70729;SDS011;58315;53.336;55.932;2022-07-18T07:52:23;19.75;;;6.35;;
70729;SDS011;58315;53.336;55.932;2022-07-18T07:54:50;8.07;;;5.50;;
70729;SDS011;58315;53.336;55.932;2022-07-18T07:57:16;8.95;;;5.60;;
70729;SDS011;58315;53.336;55.932;2022-07-18T07:59:42;7.85;;;5.65;;
70729;SDS011;58315;53.336;55.932;2022-07-18T08:02:08;11.50;;;5.93;;
70729;SDS011;58315;53.336;55.932;2022-07-18T08:04:34;9.27;;;5.80;;
70729;SDS011;58315;53.336;55.932;2022-07-18T08:07:00;9.85;;;5.50;;
70729;SDS011;58315;53.336;55.932;2022-07-18T08:09:26;14.52;;;6.45;;
70729;SDS011;58315;53.336;55.932;2022-07-18T08:11:52;13.52;;;5.45;;
70729;SDS011;58315;53.336;55.932;2022-07-18T08:14:18;8.75;;;5.05;;
70729;SDS011;58315;53.336;55.932;2022-07-18T08:16:44;20.55;;;5.65;;
70729;SDS011;58315;53.336;55.932;2022-07-18T08:19:10;8.32;;;5.45;;
70729;SDS011;58315;53.336;55.932;2022-07-18T08:21:36;9.93;;;5.95;;
70729;SDS011;58315;53.336;55.932;2022-07-18T08:24:03;8.93;;;5.55;;
70729;SDS011;58315;53.336;55.932;2022-07-18T08:26:29;8.00;;;5.88;;
70729;SDS011;58315;53.336;55.932;2022-07-18T08:28:55;10.25;;;5.30;;
70729;SDS011;58315;53.336;55.932;2022-07-18T08:31:21;10.43;;;5.63;;
70729;SDS011;58315;53.336;55.932;2022-07-18T08:33:47;13.02;;;5.60;;
70729;SDS011;58315;53.336;55.932;2022-07-18T08:36:14;27.08;;;5.47;;
70729;SDS011;58315;53.336;55.932;2022-07-18T08:38:40;9.98;;;5.43;;
70729;SDS011;58315;53.336;55.932;2022-07-18T08:41:06;14.93;;;5.45;;
70729;SDS011;58315;53.336;55.932;2022-07-18T08:43:33;6.90;;;4.85;;
70729;SDS011;58315;53.336;55.932;2022-07-18T08:46:04;9.25;;;5.15;;
70729;SDS011;58315;53.336;55.932;2022-07-18T08:48:31;11.18;;;5.55;;
70729;SDS011;58315;53.336;55.932;2022-07-18T08:50:59;12.15;;;4.93;;
70729;SDS011;58315;53.336;55.932;2022-07-18T08:53:26;11.48;;;5.40;;
70729;SDS011;58315;53.336;55.932;2022-07-18T08:55:52;10.32;;;5.75;;
70729;SDS011;58315;53.336;55.932;2022-07-18T08:58:19;11.50;;;5.03;;
70729;SDS011;58315;53.336;55.932;2022-07-18T09:00:45;9.32;;;4.88;;
70729;SDS011;58315;53.336;55.932;2022-07-18T09:03:12;9.70;;;4.85;;
70729;SDS011;58315;53.336;55.932;2022-07-18T09:05:40;7.95;;;4.90;;
70729;SDS011;58315;53.336;55.932;2022-07-18T09:08:14;7.25;;;4.72;;
70729;SDS011;58315;53.336;55.932;2022-07-18T09:10:55;6.82;;;4.75;;
70729;SDS011;58315;53.336;55.932;2022-07-18T09:13:24;12.25;;;5.00;;
70729;SDS011;58315;53.336;55.932;2022-07-18T09:16:03;21.13;;;5.15;;
70729;SDS011;58315;53.336;55.932;2022-07-18T09:18:50;12.27;;;5.13;;
70729;SDS011;58315;53.336;55.932;2022-07-18T09:21:17;15.38;;;5.10;;
70729;SDS011;58315;53.336;55.932;2022-07-18T09:23:47;8.00;;;4.88;;
70729;SDS011;58315;53.336;55.932;2022-07-18T09:26:33;8.75;;;4.28;;
70729;SDS011;58315;53.336;55.932;2022-07-18T09:28:59;7.47;;;4.50;;
70729;SDS011;58315;53.336;55.932;2022-07-18T09:31:25;15.43;;;4.95;;
70729;SDS011;58315;53.336;55.932;2022-07-18T09:33:55;26.45;;;4.88;;
70729;SDS011;58315;53.336;55.932;2022-07-18T09:36:26;5.70;;;4.43;;
70729;SDS011;58315;53.336;55.932;2022-07-18T09:38:53;10.52;;;4.60;;
70729;SDS011;58315;53.336;55.932;2022-07-18T09:41:26;11.80;;;4.30;;
70729;SDS011;58315;53.336;55.932;2022-07-18T09:43:53;6.78;;;4.53;;
70729;SDS011;58315;53.336;55.932;2022-07-18T09:46:19;8.90;;;3.97;;
70729;SDS011;58315;53.336;55.932;2022-07-18T09:48:45;5.15;;;3.65;;
70729;SDS011;58315;53.336;55.932;2022-07-18T09:51:11;9.40;;;4.47;;
70729;SDS011;58315;53.336;55.932;2022-07-18T09:53:43;7.70;;;4.25;;
70729;SDS011;58315;53.336;55.932;2022-07-18T09:56:11;5.35;;;3.70;;
70729;SDS011;58315;53.336;55.932;2022-07-18T09:58:39;7.03;;;3.90;;
70729;SDS011;58315;53.336;55.932;2022-07-18T10:01:08;7.17;;;3.73;;
70729;SDS011;58315;53.336;55.932;2022-07-18T10:03:36;8.75;;;4.30;;
70729;SDS011;58315;53.336;55.932;2022-07-18T10:06:02;8.10;;;3.95;;
70729;SDS011;58315;53.336;55.932;2022-07-18T10:08:30;9.15;;;5.22;;
70729;SDS011;58315;53.336;55.932;2022-07-18T10:10:57;7.25;;;3.80;;
70729;SDS011;58315;53.336;55.932;2022-07-18T10:13:26;10.30;;;4.10;;
70729;SDS011;58315;53.336;55.932;2022-07-18T10:15:53;8.40;;;4.20;;
70729;SDS011;58315;53.336;55.932;2022-07-18T10:18:24;8.38;;;3.83;;
70729;SDS011;58315;53.336;55.932;2022-07-18T10:20:53;6.20;;;3.97;;
70729;SDS011;58315;53.336;55.932;2022-07-18T10:23:28;20.30;;;4.20;;
70729;SDS011;58315;53.336;55.932;2022-07-18T10:31:27;7.30;;;4.40;;
70729;SDS011;58315;53.336;55.932;2022-07-18T10:33:53;5.03;;;3.63;;
70729;SDS011;58315;53.336;55.932;2022-07-18T10:39:33;11.77;;;3.88;;
70729;SDS011;58315;53.336;55.932;2022-07-18T10:47:06;7.72;;;4.10;;
70729;SDS011;58315;53.336;55.932;2022-07-18T11:00:28;6.35;;;3.85;;
70729;SDS011;58315;53.336;55.932;2022-07-18T11:16:15;23.73;;;4.43;;
70729;SDS011;58315;53.336;55.932;2022-07-18T11:24:08;8.55;;;4.00;;
70729;SDS011;58315;53.336;55.932;2022-07-18T11:26:37;6.28;;;3.90;;
70729;SDS011;58315;53.336;55.932;2022-07-18T11:29:11;12.38;;;3.80;;
70729;SDS011;58315;53.336;55.932;2022-07-18T11:31:55;7.03;;;4.07;;
70729;SDS011;58315;53.336;55.932;2022-07-18T11:34:23;10.27;;;3.88;;
70729;SDS011;58315;53.336;55.932;2022-07-18T11:36:49;7.65;;;4.03;;
70729;SDS011;58315;53.336;55.932;2022-07-18T11:39:27;7.57;;;3.78;;
70729;SDS011;58315;53.336;55.932;2022-07-18T11:41:57;7.50;;;3.55;;
70729;SDS011;58315;53.336;55.932;2022-07-18T11:44:25;7.13;;;3.70;;
70729;SDS011;58315;53.336;55.932;2022-07-18T11:47:03;8.80;;;4.28;;
70729;SDS011;58315;53.336;55.932;2022-07-18T11:49:32;10.13;;;4.40;;
70729;SDS011;58315;53.336;55.932;2022-07-18T11:51:59;9.43;;;3.70;;
70729;SDS011;58315;53.336;55.932;2022-07-18T11:54:25;6.88;;;3.78;;
70729;SDS011;58315;53.336;55.932;2022-07-18T11:56:52;9.38;;;4.00;;
70729;SDS011;58315;53.336;55.932;2022-07-18T11:59:20;14.23;;;3.92;;
70729;SDS011;58315;53.336;55.932;2022-07-18T12:01:46;7.93;;;4.18;;
70729;SDS011;58315;53.336;55.932;2022-07-18T12:04:18;6.10;;;3.90;;
70729;SDS011;58315;53.336;55.932;2022-07-18T12:09:48;8.23;;;3.92;;
70729;SDS011;58315;53.336;55.932;2022-07-18T12:12:15;8.23;;;3.80;;
70729;SDS011;58315;53.336;55.932;2022-07-18T12:14:56;6.07;;;3.42;;
70729;SDS011;58315;53.336;55.932;2022-07-18T12:17:23;6.32;;;3.50;;
70729;SDS011;58315;53.336;55.932;2022-07-18T12:19:50;11.68;;;3.80;;
70729;SDS011;58315;53.336;55.932;2022-07-18T12:22:16;12.10;;;4.20;;
70729;SDS011;58315;53.336;55.932;2022-07-18T12:27:25;12.63;;;3.95;;
70729;SDS011;58315;53.336;55.932;2022-07-18T12:30:03;13.57;;;4.00;;
70729;SDS011;58315;53.336;55.932;2022-07-18T12:32:37;6.97;;;3.65;;
70729;SDS011;58315;53.336;55.932;2022-07-18T12:40:20;10.52;;;4.35;;
70729;SDS011;58315;53.336;55.932;2022-07-18T12:42:46;11.50;;;3.92;;
70729;SDS011;58315;53.336;55.932;2022-07-18T12:45:12;7.05;;;3.70;;
70729;SDS011;58315;53.336;55.932;2022-07-18T12:47:39;9.20;;;3.65;;
70729;SDS011;58315;53.336;55.932;2022-07-18T12:50:06;11.40;;;4.25;;
70729;SDS011;58315;53.336;55.932;2022-07-18T12:52:33;7.32;;;3.67;;
70729;SDS011;58315;53.336;55.932;2022-07-18T12:54:59;7.32;;;4.00;;
70729;SDS011;58315;53.336;55.932;2022-07-18T12:57:25;9.48;;;3.30;;
70729;SDS011;58315;53.336;55.932;2022-07-18T12:59:52;8.30;;;3.22;;
70729;SDS011;58315;53.336;55.932;2022-07-18T13:02:18;10.15;;;3.55;;
70729;SDS011;58315;53.336;55.932;2022-07-18T13:04:44;6.85;;;3.55;;
70729;SDS011;58315;53.336;55.932;2022-07-18T13:07:10;13.07;;;3.80;;
70729;SDS011;58315;53.336;55.932;2022-07-18T13:09:37;9.85;;;3.60;;
70729;SDS011;58315;53.336;55.932;2022-07-18T13:12:03;38.03;;;4.03;;
70729;SDS011;58315;53.336;55.932;2022-07-18T13:14:30;11.10;;;3.97;;
70729;SDS011;58315;53.336;55.932;2022-07-18T13:16:55;11.65;;;4.10;;
70729;SDS011;58315;53.336;55.932;2022-07-18T13:19:22;4.53;;;3.58;;
70729;SDS011;58315;53.336;55.932;2022-07-18T13:21:48;6.25;;;3.40;;
70729;SDS011;58315;53.336;55.932;2022-07-18T13:24:17;8.73;;;3.90;;
70729;SDS011;58315;53.336;55.932;2022-07-18T13:26:43;10.10;;;3.40;;
70729;SDS011;58315;53.336;55.932;2022-07-18T13:29:09;6.72;;;3.88;;
70729;SDS011;58315;53.336;55.932;2022-07-18T13:31:53;8.05;;;3.70;;
70729;SDS011;58315;53.336;55.932;2022-07-18T13:34:20;9.35;;;3.65;;
70729;SDS011;58315;53.336;55.932;2022-07-18T13:36:47;10.27;;;3.97;;
70729;SDS011;58315;53.336;55.932;2022-07-18T13:39:17;5.95;;;3.60;;
70729;SDS011;58315;53.336;55.932;2022-07-18T13:41:44;10.23;;;3.45;;
70729;SDS011;58315;53.336;55.932;2022-07-18T13:44:10;11.32;;;3.47;;
70729;SDS011;58315;53.336;55.932;2022-07-18T13:46:36;10.38;;;3.60;;
70729;SDS011;58315;53.336;55.932;2022-07-18T13:49:02;12.32;;;3.53;;
70729;SDS011;58315;53.336;55.932;2022-07-18T13:51:28;21.88;;;3.83;;
70729;SDS011;58315;53.336;55.932;2022-07-18T13:53:54;5.40;;;3.15;;
70729;SDS011;58315;53.336;55.932;2022-07-18T13:56:20;18.40;;;3.90;;
70729;SDS011;58315;53.336;55.932;2022-07-18T13:58:46;9.10;;;3.30;;
70729;SDS011;58315;53.336;55.932;2022-07-18T14:01:12;10.07;;;3.25;;
70729;SDS011;58315;53.336;55.932;2022-07-18T14:03:38;12.65;;;4.10;;
70729;SDS011;58315;53.336;55.932;2022-07-18T14:06:05;5.45;;;3.25;;
70729;SDS011;58315;53.336;55.932;2022-07-18T14:08:31;11.45;;;3.50;;
70729;SDS011;58315;53.336;55.932;2022-07-18T14:10:57;7.18;;;3.45;;
70729;SDS011;58315;53.336;55.932;2022-07-18T14:13:22;6.35;;;3.63;;
70729;SDS011;58315;53.336;55.932;2022-07-18T14:15:48;5.18;;;3.70;;
70729;SDS011;58315;53.336;55.932;2022-07-18T14:18:14;11.85;;;3.75;;
70729;SDS011;58315;53.336;55.932;2022-07-18T14:20:40;6.60;;;3.53;;
70729;SDS011;58315;53.336;55.932;2022-07-18T14:23:06;7.25;;;4.20;;
70729;SDS011;58315;53.336;55.932;2022-07-18T14:25:32;5.82;;;3.55;;
70729;SDS011;58315;53.336;55.932;2022-07-18T14:27:58;8.55;;;3.53;;
70729;SDS011;58315;53.336;55.932;2022-07-18T14:30:24;6.72;;;3.88;;
70729;SDS011;58315;53.336;55.932;2022-07-18T14:32:50;6.28;;;3.20;;
70729;SDS011;58315;53.336;55.932;2022-07-18T14:35:16;4.72;;;3.30;;
70729;SDS011;58315;53.336;55.932;2022-07-18T14:37:42;6.15;;;3.25;;
70729;SDS011;58315;53.336;55.932;2022-07-18T14:40:08;5.00;;;3.22;;
70729;SDS011;58315;53.336;55.932;2022-07-18T14:42:36;5.95;;;3.60;;
70729;SDS011;58315;53.336;55.932;2022-07-18T14:45:02;8.85;;;3.17;;
70729;SDS011;58315;53.336;55.932;2022-07-18T14:47:29;6.00;;;3.30;;
70729;SDS011;58315;53.336;55.932;2022-07-18T14:49:57;8.43;;;3.83;;
70729;SDS011;58315;53.336;55.932;2022-07-18T14:52:23;19.42;;;3.85;;
70729;SDS011;58315;53.336;55.932;2022-07-18T14:54:49;12.50;;;4.10;;
70729;SDS011;58315;53.336;55.932;2022-07-18T14:57:15;51.10;;;4.43;;
70729;SDS011;58315;53.336;55.932;2022-07-18T14:59:42;12.68;;;3.63;;
70729;SDS011;58315;53.336;55.932;2022-07-18T15:02:08;5.53;;;3.90;;
70729;SDS011;58315;53.336;55.932;2022-07-18T15:04:34;25.55;;;4.40;;
70729;SDS011;58315;53.336;55.932;2022-07-18T15:07:01;8.68;;;4.13;;
70729;SDS011;58315;53.336;55.932;2022-07-18T15:09:28;11.32;;;4.00;;
70729;SDS011;58315;53.336;55.932;2022-07-18T15:11:54;6.20;;;3.85;;
70729;SDS011;58315;53.336;55.932;2022-07-18T15:14:20;7.47;;;4.18;;
70729;SDS011;58315;53.336;55.932;2022-07-18T15:16:45;10.88;;;4.07;;
70729;SDS011;58315;53.336;55.932;2022-07-18T15:19:12;5.80;;;4.10;;
70729;SDS011;58315;53.336;55.932;2022-07-18T15:21:37;9.32;;;4.53;;
70729;SDS011;58315;53.336;55.932;2022-07-18T15:24:03;15.80;;;4.45;;